sensor_id;sensor_type;location;lat;lon;timestamp;pressure;altitude;pressure_sealevel;temperature;humidity
46778;BME280;32536;47.128;8.746;2023-12-07T00:01:24;91749.41;;;5.73;59.16
46778;BME280;32536;47.128;8.746;2023-12-07T00:03:51;91744.09;;;5.73;58.64
46778;BME280;32536;47.128;8.746;2023-12-07T00:06:18;91748.28;;;5.74;58.90
46778;BME280;32536;47.128;8.746;2023-12-07T00:08:44;91747.91;;;5.76;59.62
46778;BME280;32536;47.128;8.746;2023-12-07T00:11:11;91745.66;;;5.78;59.49
46778;BME280;32536;47.128;8.746;2023-12-07T00:13:38;91745.28;;;5.80;58.98
46778;BME280;32536;47.128;8.746;2023-12-07T00:16:05;91748.69;;;5.76;58.32
46778;BME280;32536;47.128;8.746;2023-12-07T00:18:33;91744.88;;;5.70;58.72
46778;BME280;32536;47.128;8.746;2023-12-07T00:20:59;91744.47;;;5.68;58.58
46778;BME280;32536;47.128;8.746;2023-12-07T00:23:26;91750.19;;;5.70;58.71
46778;BME280;32536;47.128;8.746;2023-12-07T00:25:53;91745.63;;;5.71;58.67
46778;BME280;32536;47.128;8.746;2023-12-07T00:28:20;91741.81;;;5.72;59.32
46778;BME280;32536;47.128;8.746;2023-12-07T00:30:47;91739.91;;;5.72;59.16
46778;BME280;32536;47.128;8.746;2023-12-07T00:33:14;91746.03;;;5.76;58.60
46778;BME280;32536;47.128;8.746;2023-12-07T00:35:42;91747.56;;;5.77;58.90
46778;BME280;32536;47.128;8.746;2023-12-07T00:38:09;91747.94;;;5.80;58.97
46778;BME280;32536;47.128;8.746;2023-12-07T00:40:36;91733.50;;;5.81;58.89
46778;BME280;32536;47.128;8.746;2023-12-07T00:43:06;91734.28;;;5.81;58.94
46778;BME280;32536;47.128;8.746;2023-12-07T00:45:33;91727.81;;;5.79;59.09
46778;BME280;32536;47.128;8.746;2023-12-07T00:48:00;91713.00;;;5.77;59.35
46778;BME280;32536;47.128;8.746;2023-12-07T00:50:26;91715.25;;;5.75;59.70
46778;BME280;32536;47.128;8.746;2023-12-07T00:52:53;91723.97;;;5.72;59.54
46778;BME280;32536;47.128;8.746;2023-12-07T00:55:20;91727.00;;;5.71;59.51
46778;BME280;32536;47.128;8.746;2023-12-07T00:57:50;91732.69;;;5.69;59.88
46778;BME280;32536;47.128;8.746;2023-12-07T01:00:17;91731.22;;;5.75;60.01
46778;BME280;32536;47.128;8.746;2023-12-07T01:02:44;91738.09;;;5.80;59.55
46778;BME280;32536;47.128;8.746;2023-12-07T01:05:11;91737.69;;;5.82;59.35
46778;BME280;32536;47.128;8.746;2023-12-07T01:07:38;91730.13;;;5.84;59.28
46778;BME280;32536;47.128;8.746;2023-12-07T01:10:05;91733.16;;;5.86;59.58
46778;BME280;32536;47.128;8.746;2023-12-07T01:12:32;91733.94;;;5.86;59.32
46778;BME280;32536;47.128;8.746;2023-12-07T01:14:59;91734.34;;;5.88;59.63
46778;BME280;32536;47.128;8.746;2023-12-07T01:17:26;91735.47;;;5.91;58.80
46778;BME280;32536;47.128;8.746;2023-12-07T01:19:52;91735.84;;;5.93;58.92
46778;BME280;32536;47.128;8.746;2023-12-07T01:22:19;91728.28;;;5.95;58.97
46778;BME280;32536;47.128;8.746;2023-12-07T01:24:46;91734.75;;;5.98;59.63
46778;BME280;32536;47.128;8.746;2023-12-07T01:27:13;91738.97;;;6.02;58.97
46778;BME280;32536;47.128;8.746;2023-12-07T01:29:40;91743.56;;;6.05;59.00
46778;BME280;32536;47.128;8.746;2023-12-07T01:32:07;91735.97;;;6.07;59.52
46778;BME280;32536;47.128;8.746;2023-12-07T01:34:34;91737.50;;;6.08;59.53
46778;BME280;32536;47.128;8.746;2023-12-07T01:37:01;91737.09;;;6.06;59.18
46778;BME280;32536;47.128;8.746;2023-12-07T01:39:28;91741.28;;;6.07;59.38
46778;BME280;32536;47.128;8.746;2023-12-07T01:41:54;91751.16;;;6.07;59.22
46778;BME280;32536;47.128;8.746;2023-12-07T01:44:21;91745.06;;;6.06;59.18
46778;BME280;32536;47.128;8.746;2023-12-07T01:46:48;91753.81;;;6.07;58.93
46778;BME280;32536;47.128;8.746;2023-12-07T01:49:15;91748.50;;;6.03;58.71
46778;BME280;32536;47.128;8.746;2023-12-07T01:51:42;91745.03;;;5.99;58.94
46778;BME280;32536;47.128;8.746;2023-12-07T01:54:09;91752.25;;;5.99;59.44
46778;BME280;32536;47.128;8.746;2023-12-07T01:56:36;91748.81;;;5.98;59.61
46778;BME280;32536;47.128;8.746;2023-12-07T01:59:03;91749.94;;;5.97;59.24
46778;BME280;32536;47.128;8.746;2023-12-07T02:01:29;91757.94;;;5.97;58.79
46778;BME280;32536;47.128;8.746;2023-12-07T02:03:56;91753.72;;;5.92;58.68
46778;BME280;32536;47.128;8.746;2023-12-07T02:06:23;91758.25;;;5.88;58.77
46778;BME280;32536;47.128;8.746;2023-12-07T02:08:50;91763.16;;;5.83;58.58
46778;BME280;32536;47.128;8.746;2023-12-07T02:11:17;91761.97;;;5.76;57.95
46778;BME280;32536;47.128;8.746;2023-12-07T02:13:44;91761.56;;;5.71;58.56
46778;BME280;32536;47.128;8.746;2023-12-07T02:16:23;91764.53;;;5.62;57.20
46778;BME280;32536;47.128;8.746;2023-12-07T02:19:06;91763.78;;;5.58;56.79
46778;BME280;32536;47.128;8.746;2023-12-07T02:21:58;91760.59;;;5.41;56.35
46778;BME280;32536;47.128;8.746;2023-12-07T02:24:28;91762.41;;;5.30;57.48
46778;BME280;32536;47.128;8.746;2023-12-07T02:26:59;91757.03;;;5.19;57.60
46778;BME280;32536;47.128;8.746;2023-12-07T02:29:26;91755.41;;;5.07;57.43
46778;BME280;32536;47.128;8.746;2023-12-07T02:31:52;91752.97;;;4.91;57.05
46778;BME280;32536;47.128;8.746;2023-12-07T02:34:19;91751.69;;;4.74;56.88
46778;BME280;32536;47.128;8.746;2023-12-07T02:36:48;91749.66;;;4.60;57.30
46778;BME280;32536;47.128;8.746;2023-12-07T02:39:16;91749.22;;;4.55;57.48
46778;BME280;32536;47.128;8.746;2023-12-07T02:41:45;91749.50;;;4.46;57.19
46778;BME280;32536;47.128;8.746;2023-12-07T02:44:13;91743.28;;;4.31;57.29
46778;BME280;32536;47.128;8.746;2023-12-07T02:46:39;91740.84;;;4.19;57.54
46778;BME280;32536;47.128;8.746;2023-12-07T02:49:06;91756.25;;;4.06;57.29
46778;BME280;32536;47.128;8.746;2023-12-07T02:51:33;91751.13;;;3.90;57.77
46778;BME280;32536;47.128;8.746;2023-12-07T02:54:00;91746.09;;;3.81;57.47
46778;BME280;32536;47.128;8.746;2023-12-07T02:56:27;91747.47;;;3.71;57.36
46778;BME280;32536;47.128;8.746;2023-12-07T02:58:53;91751.50;;;3.61;57.38
46778;BME280;32536;47.128;8.746;2023-12-07T03:01:20;91746.44;;;3.52;57.05
46778;BME280;32536;47.128;8.746;2023-12-07T03:03:47;91752.84;;;3.48;57.53
46778;BME280;32536;47.128;8.746;2023-12-07T03:06:13;91748.59;;;3.43;57.43
46778;BME280;32536;47.128;8.746;2023-12-07T03:08:42;91749.63;;;3.35;57.55
46778;BME280;32536;47.128;8.746;2023-12-07T03:11:08;91751.72;;;3.26;57.93
46778;BME280;32536;47.128;8.746;2023-12-07T03:13:35;91753.16;;;3.19;57.63
46778;BME280;32536;47.128;8.746;2023-12-07T03:16:07;91751.94;;;3.13;56.21
46778;BME280;32536;47.128;8.746;2023-12-07T03:18:36;91750.69;;;3.07;57.59
46778;BME280;32536;47.128;8.746;2023-12-07T03:21:03;91753.22;;;3.00;57.15
46778;BME280;32536;47.128;8.746;2023-12-07T03:23:30;91746.66;;;2.90;56.96
46778;BME280;32536;47.128;8.746;2023-12-07T03:25:57;91737.91;;;2.86;57.86
46778;BME280;32536;47.128;8.746;2023-12-07T03:28:23;91747.31;;;2.83;57.43
46778;BME280;32536;47.128;8.746;2023-12-07T03:30:50;91747.56;;;2.78;57.53
46778;BME280;32536;47.128;8.746;2023-12-07T03:33:17;91756.91;;;2.72;57.26
46778;BME280;32536;47.128;8.746;2023-12-07T03:35:44;91753.09;;;2.69;57.72
46778;BME280;32536;47.128;8.746;2023-12-07T03:38:10;91757.09;;;2.60;57.13
46778;BME280;32536;47.128;8.746;2023-12-07T03:40:37;91756.56;;;2.50;57.23
46778;BME280;32536;47.128;8.746;2023-12-07T03:43:04;91752.25;;;2.42;57.26
46778;BME280;32536;47.128;8.746;2023-12-07T03:45:30;91758.22;;;2.39;57.47
46778;BME280;32536;47.128;8.746;2023-12-07T03:47:57;91760.47;;;2.37;57.19
46778;BME280;32536;47.128;8.746;2023-12-07T03:50:24;91756.16;;;2.29;56.94
46778;BME280;32536;47.128;8.746;2023-12-07T03:52:51;91758.25;;;2.19;56.85
46778;BME280;32536;47.128;8.746;2023-12-07T03:55:17;91758.31;;;2.03;56.93
46778;BME280;32536;47.128;8.746;2023-12-07T03:58:01;91754.19;;;1.86;55.86
46778;BME280;32536;47.128;8.746;2023-12-07T04:00:28;91749.00;;;1.90;57.84
46778;BME280;32536;47.128;8.746;2023-12-07T04:02:55;91750.66;;;1.98;58.12
46778;BME280;32536;47.128;8.746;2023-12-07T04:05:21;91757.63;;;2.06;58.26
46778;BME280;32536;47.128;8.746;2023-12-07T04:07:48;91758.53;;;2.14;57.99
46778;BME280;32536;47.128;8.746;2023-12-07T04:10:15;91751.78;;;2.17;57.51
46778;BME280;32536;47.128;8.746;2023-12-07T04:12:42;91754.00;;;2.15;57.09
46778;BME280;32536;47.128;8.746;2023-12-07T04:15:09;91751.34;;;2.15;57.32
46778;BME280;32536;47.128;8.746;2023-12-07T04:17:36;91763.53;;;2.19;57.63
46778;BME280;32536;47.128;8.746;2023-12-07T04:20:03;91762.00;;;2.18;56.64
46778;BME280;32536;47.128;8.746;2023-12-07T04:22:31;91764.56;;;2.15;57.03
46778;BME280;32536;47.128;8.746;2023-12-07T04:24:58;91766.09;;;2.16;57.29
46778;BME280;32536;47.128;8.746;2023-12-07T04:27:25;91769.94;;;2.18;57.32
46778;BME280;32536;47.128;8.746;2023-12-07T04:29:51;91769.31;;;2.25;57.49
46778;BME280;32536;47.128;8.746;2023-12-07T04:32:18;91763.72;;;2.30;57.67
46778;BME280;32536;47.128;8.746;2023-12-07T04:34:45;91770.19;;;2.33;57.55
46778;BME280;32536;47.128;8.746;2023-12-07T04:37:11;91766.81;;;2.32;57.04
46778;BME280;32536;47.128;8.746;2023-12-07T04:39:38;91765.28;;;2.31;56.87
46778;BME280;32536;47.128;8.746;2023-12-07T04:42:05;91772.38;;;2.27;56.47
46778;BME280;32536;47.128;8.746;2023-12-07T04:44:33;91767.41;;;2.26;57.15
46778;BME280;32536;47.128;8.746;2023-12-07T04:46:59;91767.34;;;2.22;56.60
46778;BME280;32536;47.128;8.746;2023-12-07T04:49:26;91765.34;;;2.15;56.78
46778;BME280;32536;47.128;8.746;2023-12-07T04:51:53;91770.56;;;2.12;57.11
46778;BME280;32536;47.128;8.746;2023-12-07T04:54:20;91758.53;;;2.14;57.41
46778;BME280;32536;47.128;8.746;2023-12-07T04:56:47;91764.44;;;2.07;55.86
46778;BME280;32536;47.128;8.746;2023-12-07T04:59:13;91757.50;;;1.99;56.66
46778;BME280;32536;47.128;8.746;2023-12-07T05:01:40;91760.81;;;1.96;57.13
46778;BME280;32536;47.128;8.746;2023-12-07T05:04:07;91764.50;;;1.91;56.33
46778;BME280;32536;47.128;8.746;2023-12-07T05:06:34;91758.03;;;1.89;56.65
46778;BME280;32536;47.128;8.746;2023-12-07T05:09:01;91753.44;;;1.86;56.51
46778;BME280;32536;47.128;8.746;2023-12-07T05:11:28;91758.59;;;1.79;56.56
46778;BME280;32536;47.128;8.746;2023-12-07T05:13:55;91753.50;;;1.70;56.12
46778;BME280;32536;47.128;8.746;2023-12-07T05:16:23;91748.75;;;1.59;56.29
46778;BME280;32536;47.128;8.746;2023-12-07T05:18:50;91751.16;;;1.49;56.32
46778;BME280;32536;47.128;8.746;2023-12-07T05:21:16;91749.06;;;1.38;56.57
46778;BME280;32536;47.128;8.746;2023-12-07T05:23:43;91744.38;;;1.32;56.76
46778;BME280;32536;47.128;8.746;2023-12-07T05:26:10;91744.28;;;1.28;56.87
46778;BME280;32536;47.128;8.746;2023-12-07T05:28:37;91751.28;;;1.20;56.91
46778;BME280;32536;47.128;8.746;2023-12-07T05:31:04;91749.00;;;1.19;56.38
46778;BME280;32536;47.128;8.746;2023-12-07T05:33:30;91749.00;;;1.19;56.82
46778;BME280;32536;47.128;8.746;2023-12-07T05:35:57;91749.41;;;1.21;57.14
46778;BME280;32536;47.128;8.746;2023-12-07T05:38:24;91747.28;;;1.26;56.84
46778;BME280;32536;47.128;8.746;2023-12-07T05:40:51;91745.47;;;1.31;56.90
46778;BME280;32536;47.128;8.746;2023-12-07T05:43:17;91751.97;;;1.33;56.61
46778;BME280;32536;47.128;8.746;2023-12-07T05:45:44;91742.16;;;1.34;56.73
46778;BME280;32536;47.128;8.746;2023-12-07T05:48:11;91741.31;;;1.30;56.43
46778;BME280;32536;47.128;8.746;2023-12-07T05:50:38;91742.34;;;1.25;56.45
46778;BME280;32536;47.128;8.746;2023-12-07T05:53:06;91747.53;;;1.21;56.01
46778;BME280;32536;47.128;8.746;2023-12-07T05:55:33;91748.91;;;1.15;55.99
46778;BME280;32536;47.128;8.746;2023-12-07T05:58:08;91735.13;;;1.06;55.57
46778;BME280;32536;47.128;8.746;2023-12-07T06:00:35;91736.66;;;1.07;56.83
46778;BME280;32536;47.128;8.746;2023-12-07T06:03:03;91744.00;;;1.14;57.09
46778;BME280;32536;47.128;8.746;2023-12-07T06:05:31;91738.09;;;1.20;56.66
46778;BME280;32536;47.128;8.746;2023-12-07T06:07:57;91738.53;;;1.22;56.64
46778;BME280;32536;47.128;8.746;2023-12-07T06:10:24;91740.06;;;1.23;56.56
46778;BME280;32536;47.128;8.746;2023-12-07T06:12:51;91748.06;;;1.27;56.41
46778;BME280;32536;47.128;8.746;2023-12-07T06:15:18;91747.53;;;1.21;55.48
46778;BME280;32536;47.128;8.746;2023-12-07T06:17:45;91741.34;;;1.14;56.01
46778;BME280;32536;47.128;8.746;2023-12-07T06:20:13;91744.94;;;1.05;56.14
46778;BME280;32536;47.128;8.746;2023-12-07T06:22:39;91739.47;;;0.98;56.77
46778;BME280;32536;47.128;8.746;2023-12-07T06:25:06;91738.69;;;0.98;56.86
46778;BME280;32536;47.128;8.746;2023-12-07T06:27:35;91738.38;;;0.99;56.56
46778;BME280;32536;47.128;8.746;2023-12-07T06:30:04;91743.38;;;1.04;56.96
46778;BME280;32536;47.128;8.746;2023-12-07T06:32:32;91741.28;;;1.10;56.97
46778;BME280;32536;47.128;8.746;2023-12-07T06:35:00;91741.41;;;1.17;56.74
46778;BME280;32536;47.128;8.746;2023-12-07T06:37:27;91742.19;;;1.18;56.36
46778;BME280;32536;47.128;8.746;2023-12-07T06:39:53;91734.84;;;1.11;55.71
46778;BME280;32536;47.128;8.746;2023-12-07T06:42:20;91736.94;;;1.02;55.39
46778;BME280;32536;47.128;8.746;2023-12-07T06:44:47;91743.88;;;0.94;55.86
46778;BME280;32536;47.128;8.746;2023-12-07T06:47:17;91742.63;;;0.88;56.39
46778;BME280;32536;47.128;8.746;2023-12-07T06:49:44;91745.78;;;0.77;56.40
46778;BME280;32536;47.128;8.746;2023-12-07T06:52:12;91741.88;;;0.71;56.72
46778;BME280;32536;47.128;8.746;2023-12-07T06:54:39;91751.88;;;0.66;56.72
46778;BME280;32536;47.128;8.746;2023-12-07T06:57:05;91755.13;;;0.59;56.62
46778;BME280;32536;47.128;8.746;2023-12-07T06:59:33;91753.25;;;0.59;56.97
46778;BME280;32536;47.128;8.746;2023-12-07T07:02:00;91751.53;;;0.67;56.90
46778;BME280;32536;47.128;8.746;2023-12-07T07:04:27;91749.78;;;0.71;56.97
46778;BME280;32536;47.128;8.746;2023-12-07T07:06:53;91755.47;;;0.73;57.11
46778;BME280;32536;47.128;8.746;2023-12-07T07:09:20;91760.16;;;0.80;56.72
46778;BME280;32536;47.128;8.746;2023-12-07T07:11:48;91751.97;;;0.85;57.09
46778;BME280;32536;47.128;8.746;2023-12-07T07:14:15;91745.34;;;0.91;57.18
46778;BME280;32536;47.128;8.746;2023-12-07T07:16:42;91746.22;;;0.95;56.93
46778;BME280;32536;47.128;8.746;2023-12-07T07:19:09;91751.66;;;1.03;57.07
46778;BME280;32536;47.128;8.746;2023-12-07T07:21:36;91755.56;;;1.09;56.83
46778;BME280;32536;47.128;8.746;2023-12-07T07:24:03;91751.81;;;1.10;56.41
46778;BME280;32536;47.128;8.746;2023-12-07T07:26:30;91753.16;;;1.04;56.25
46778;BME280;32536;47.128;8.746;2023-12-07T07:28:56;91756.94;;;1.03;56.51
46778;BME280;32536;47.128;8.746;2023-12-07T07:31:23;91754.28;;;1.03;56.81
46778;BME280;32536;47.128;8.746;2023-12-07T07:33:50;91758.44;;;1.04;56.66
46778;BME280;32536;47.128;8.746;2023-12-07T07:36:17;91757.34;;;1.05;56.71
46778;BME280;32536;47.128;8.746;2023-12-07T07:38:43;91750.28;;;1.09;56.74
46778;BME280;32536;47.128;8.746;2023-12-07T07:41:10;91745.75;;;1.09;56.53
46778;BME280;32536;47.128;8.746;2023-12-07T07:43:37;91740.50;;;1.09;56.60
46778;BME280;32536;47.128;8.746;2023-12-07T07:46:04;91751.38;;;1.08;56.17
46778;BME280;32536;47.128;8.746;2023-12-07T07:48:31;91747.81;;;1.00;55.80
46778;BME280;32536;47.128;8.746;2023-12-07T07:50:58;91747.31;;;0.94;55.95
46778;BME280;32536;47.128;8.746;2023-12-07T07:53:25;91739.75;;;0.93;56.29
46778;BME280;32536;47.128;8.746;2023-12-07T07:55:51;91739.41;;;0.94;56.04
46778;BME280;32536;47.128;8.746;2023-12-07T07:58:18;91730.38;;;0.95;56.22
46778;BME280;32536;47.128;8.746;2023-12-07T08:00:45;91734.78;;;0.91;55.23
46778;BME280;32536;47.128;8.746;2023-12-07T08:03:12;91733.13;;;0.83;55.38
46778;BME280;32536;47.128;8.746;2023-12-07T08:05:39;91722.03;;;0.77;55.86
46778;BME280;32536;47.128;8.746;2023-12-07T08:08:06;91726.88;;;0.75;55.62
46778;BME280;32536;47.128;8.746;2023-12-07T08:10:33;91720.00;;;0.71;55.96
46778;BME280;32536;47.128;8.746;2023-12-07T08:13:00;91725.44;;;0.62;55.73
46778;BME280;32536;47.128;8.746;2023-12-07T08:15:27;91729.09;;;0.57;56.73
46778;BME280;32536;47.128;8.746;2023-12-07T08:17:53;91726.53;;;0.61;56.80
46778;BME280;32536;47.128;8.746;2023-12-07T08:20:21;91725.97;;;0.68;56.58
46778;BME280;32536;47.128;8.746;2023-12-07T08:22:48;91723.06;;;0.73;56.44
46778;BME280;32536;47.128;8.746;2023-12-07T08:25:15;91728.50;;;0.80;56.52
46778;BME280;32536;47.128;8.746;2023-12-07T08:27:43;91730.03;;;0.81;56.23
46778;BME280;32536;47.128;8.746;2023-12-07T08:30:13;91731.22;;;0.84;56.23
46778;BME280;32536;47.128;8.746;2023-12-07T08:32:40;91728.31;;;0.89;56.65
46778;BME280;32536;47.128;8.746;2023-12-07T08:35:06;91723.06;;;0.89;55.94
46778;BME280;32536;47.128;8.746;2023-12-07T08:37:37;91715.84;;;0.86;56.31
46778;BME280;32536;47.128;8.746;2023-12-07T08:40:06;91713.94;;;0.86;56.50
46778;BME280;32536;47.128;8.746;2023-12-07T08:42:35;91723.41;;;0.87;56.25
46778;BME280;32536;47.128;8.746;2023-12-07T08:45:02;91716.16;;;0.84;56.18
46778;BME280;32536;47.128;8.746;2023-12-07T08:47:29;91714.97;;;0.82;56.24
46778;BME280;32536;47.128;8.746;2023-12-07T08:49:57;91719.31;;;0.74;54.83
46778;BME280;32536;47.128;8.746;2023-12-07T08:52:24;91714.56;;;0.63;55.76
46778;BME280;32536;47.128;8.746;2023-12-07T08:54:50;91722.72;;;0.58;56.12
46778;BME280;32536;47.128;8.746;2023-12-07T08:57:18;91711.75;;;0.56;56.51
46778;BME280;32536;47.128;8.746;2023-12-07T08:59:45;91713.25;;;0.57;56.43
46778;BME280;32536;47.128;8.746;2023-12-07T09:02:11;91706.88;;;0.58;56.16
46778;BME280;32536;47.128;8.746;2023-12-07T09:04:38;91701.88;;;0.53;55.65
46778;BME280;32536;47.128;8.746;2023-12-07T09:07:05;91690.81;;;0.47;56.35
46778;BME280;32536;47.128;8.746;2023-12-07T09:09:32;91697.13;;;0.43;56.22
46778;BME280;32536;47.128;8.746;2023-12-07T09:11:59;91698.97;;;0.42;56.75
46778;BME280;32536;47.128;8.746;2023-12-07T09:14:26;91696.09;;;0.47;56.78
46778;BME280;32536;47.128;8.746;2023-12-07T09:16:52;91690.91;;;0.51;56.91
46778;BME280;32536;47.128;8.746;2023-12-07T09:19:20;91687.25;;;0.56;57.01
46778;BME280;32536;47.128;8.746;2023-12-07T09:21:47;91688.78;;;0.57;56.64
46778;BME280;32536;47.128;8.746;2023-12-07T09:24:13;91681.22;;;0.55;56.93
46778;BME280;32536;47.128;8.746;2023-12-07T09:26:40;91684.69;;;0.59;56.81
46778;BME280;32536;47.128;8.746;2023-12-07T09:29:07;91684.03;;;0.62;56.42
46778;BME280;32536;47.128;8.746;2023-12-07T09:31:34;91682.59;;;0.65;56.56
46778;BME280;32536;47.128;8.746;2023-12-07T09:34:01;91698.13;;;0.70;56.56
46778;BME280;32536;47.128;8.746;2023-12-07T09:36:28;91699.06;;;0.78;57.06
46778;BME280;32536;47.128;8.746;2023-12-07T09:38:54;91703.41;;;0.86;57.08
46778;BME280;32536;47.128;8.746;2023-12-07T09:41:22;91705.88;;;0.95;57.04
46778;BME280;32536;47.128;8.746;2023-12-07T09:43:50;91691.81;;;1.07;57.41
46778;BME280;32536;47.128;8.746;2023-12-07T09:46:17;91693.59;;;1.19;57.73
46778;BME280;32536;47.128;8.746;2023-12-07T09:48:46;91695.00;;;1.32;57.43
46778;BME280;32536;47.128;8.746;2023-12-07T09:51:15;91692.91;;;1.41;57.54
46778;BME280;32536;47.128;8.746;2023-12-07T09:53:42;91690.09;;;1.50;57.82
46778;BME280;32536;47.128;8.746;2023-12-07T09:56:09;91688.00;;;1.59;58.37
46778;BME280;32536;47.128;8.746;2023-12-07T09:58:36;91676.56;;;1.71;58.10
46778;BME280;32536;47.128;8.746;2023-12-07T10:01:05;91681.69;;;1.84;58.33
46778;BME280;32536;47.128;8.746;2023-12-07T10:03:32;91676.19;;;1.92;57.97
46778;BME280;32536;47.128;8.746;2023-12-07T10:05:59;91675.50;;;1.96;57.76
46778;BME280;32536;47.128;8.746;2023-12-07T10:08:31;91665.34;;;1.98;57.44
46778;BME280;32536;47.128;8.746;2023-12-07T10:13:33;91664.94;;;1.96;56.35
46778;BME280;32536;47.128;8.746;2023-12-07T10:16:14;91661.06;;;1.89;54.46
46778;BME280;32536;47.128;8.746;2023-12-07T10:18:42;91663.34;;;1.91;56.43
46778;BME280;32536;47.128;8.746;2023-12-07T10:21:09;91655.00;;;1.89;56.55
46778;BME280;32536;47.128;8.746;2023-12-07T10:23:37;91645.97;;;1.90;56.85
46778;BME280;32536;47.128;8.746;2023-12-07T10:26:07;91644.44;;;1.89;55.31
46778;BME280;32536;47.128;8.746;2023-12-07T10:28:35;91635.31;;;1.86;55.72
46778;BME280;32536;47.128;8.746;2023-12-07T10:31:02;91634.50;;;1.82;56.81
46778;BME280;32536;47.128;8.746;2023-12-07T10:33:29;91625.06;;;1.81;56.95
46778;BME280;32536;47.128;8.746;2023-12-07T10:35:56;91613.78;;;1.84;57.16
46778;BME280;32536;47.128;8.746;2023-12-07T10:38:23;91606.75;;;1.92;57.42
46778;BME280;32536;47.128;8.746;2023-12-07T10:41:04;91606.09;;;1.99;56.70
46778;BME280;32536;47.128;8.746;2023-12-07T10:43:37;91604.81;;;2.12;57.34
46778;BME280;32536;47.128;8.746;2023-12-07T10:46:06;91611.75;;;2.20;57.15
46778;BME280;32536;47.128;8.746;2023-12-07T10:48:35;91605.44;;;2.25;57.18
46778;BME280;32536;47.128;8.746;2023-12-07T10:51:06;91608.06;;;2.25;56.61
46778;BME280;32536;47.128;8.746;2023-12-07T10:53:38;91599.09;;;2.30;57.19
46778;BME280;32536;47.128;8.746;2023-12-07T10:56:28;91601.44;;;2.35;56.43
46778;BME280;32536;47.128;8.746;2023-12-07T10:58:59;91593.66;;;2.46;57.34
46778;BME280;32536;47.128;8.746;2023-12-07T11:01:26;91590.78;;;2.54;57.43
46778;BME280;32536;47.128;8.746;2023-12-07T11:03:53;91589.00;;;2.62;57.67
46778;BME280;32536;47.128;8.746;2023-12-07T11:06:20;91597.03;;;2.69;57.12
46778;BME280;32536;47.128;8.746;2023-12-07T11:08:50;91602.44;;;2.77;57.03
46778;BME280;32536;47.128;8.746;2023-12-07T11:11:29;91602.91;;;2.82;57.15
46778;BME280;32536;47.128;8.746;2023-12-07T11:14:13;91610.22;;;2.93;57.44
46778;BME280;32536;47.128;8.746;2023-12-07T11:16:46;91615.66;;;3.03;57.46
46778;BME280;32536;47.128;8.746;2023-12-07T11:21:59;91598.03;;;3.15;58.12
46778;BME280;32536;47.128;8.746;2023-12-07T11:24:27;91593.19;;;3.20;57.94
46778;BME280;32536;47.128;8.746;2023-12-07T11:26:54;91588.69;;;3.21;58.27
46778;BME280;32536;47.128;8.746;2023-12-07T11:29:24;91593.94;;;3.17;58.22
46778;BME280;32536;47.128;8.746;2023-12-07T11:31:55;91587.50;;;3.18;58.14
46778;BME280;32536;47.128;8.746;2023-12-07T11:37:03;91580.50;;;3.33;58.37
46778;BME280;32536;47.128;8.746;2023-12-07T11:42:10;91571.97;;;3.47;58.39
46778;BME280;32536;47.128;8.746;2023-12-07T11:44:39;91571.97;;;3.47;58.21
46778;BME280;32536;47.128;8.746;2023-12-07T11:47:08;91568.94;;;3.49;58.28
46778;BME280;32536;47.128;8.746;2023-12-07T11:49:35;91563.31;;;3.50;58.77
46778;BME280;32536;47.128;8.746;2023-12-07T11:52:13;91554.22;;;3.51;58.08
46778;BME280;32536;47.128;8.746;2023-12-07T11:54:41;91548.25;;;3.58;58.96
46778;BME280;32536;47.128;8.746;2023-12-07T11:57:13;91542.66;;;3.67;58.96
46778;BME280;32536;47.128;8.746;2023-12-07T11:59:42;91538.22;;;3.78;58.82
46778;BME280;32536;47.128;8.746;2023-12-07T12:02:11;91527.38;;;3.91;58.77
46778;BME280;32536;47.128;8.746;2023-12-07T12:04:39;91528.22;;;4.02;58.53
46778;BME280;32536;47.128;8.746;2023-12-07T12:07:07;91521.88;;;4.10;58.54
46778;BME280;32536;47.128;8.746;2023-12-07T12:09:34;91515.47;;;4.19;58.57
46778;BME280;32536;47.128;8.746;2023-12-07T12:12:01;91508.34;;;4.26;58.19
46778;BME280;32536;47.128;8.746;2023-12-07T12:14:28;91502.72;;;4.31;57.97
46778;BME280;32536;47.128;8.746;2023-12-07T12:16:56;91504.25;;;4.36;58.22
46778;BME280;32536;47.128;8.746;2023-12-07T12:19:23;91495.97;;;4.41;57.96
46778;BME280;32536;47.128;8.746;2023-12-07T12:21:50;91485.78;;;4.47;57.90
46778;BME280;32536;47.128;8.746;2023-12-07T12:24:17;91478.59;;;4.51;57.85
46778;BME280;32536;47.128;8.746;2023-12-07T12:26:44;91480.13;;;4.52;57.13
46778;BME280;32536;47.128;8.746;2023-12-07T12:29:13;91475.56;;;4.53;57.29
46778;BME280;32536;47.128;8.746;2023-12-07T12:31:41;91470.63;;;4.51;57.17
46778;BME280;32536;47.128;8.746;2023-12-07T12:34:07;91463.81;;;4.50;57.14
46778;BME280;32536;47.128;8.746;2023-12-07T12:36:35;91462.66;;;4.47;56.85
46778;BME280;32536;47.128;8.746;2023-12-07T12:39:02;91456.19;;;4.45;56.78
46778;BME280;32536;47.128;8.746;2023-12-07T12:41:32;91458.84;;;4.45;56.94
46778;BME280;32536;47.128;8.746;2023-12-07T12:43:58;91458.84;;;4.45;57.15
46778;BME280;32536;47.128;8.746;2023-12-07T12:46:25;91459.59;;;4.45;57.21
46778;BME280;32536;47.128;8.746;2023-12-07T12:49:01;91457.31;;;4.44;55.41
46778;BME280;32536;47.128;8.746;2023-12-07T12:51:29;91460.75;;;4.44;56.60
46778;BME280;32536;47.128;8.746;2023-12-07T12:53:59;91461.50;;;4.45;57.04
46778;BME280;32536;47.128;8.746;2023-12-07T12:56:27;91464.56;;;4.47;57.60
46778;BME280;32536;47.128;8.746;2023-12-07T12:58:54;91464.19;;;4.52;57.60
46778;BME280;32536;47.128;8.746;2023-12-07T13:01:24;91471.81;;;4.57;57.93
46778;BME280;32536;47.128;8.746;2023-12-07T13:03:51;91479.38;;;4.59;57.44
46778;BME280;32536;47.128;8.746;2023-12-07T13:06:18;91471.81;;;4.61;57.48
46778;BME280;32536;47.128;8.746;2023-12-07T13:08:47;91471.84;;;4.64;58.07
46778;BME280;32536;47.128;8.746;2023-12-07T13:11:20;91475.66;;;4.67;56.73
46778;BME280;32536;47.128;8.746;2023-12-07T13:13:47;91480.56;;;4.69;57.19
46778;BME280;32536;47.128;8.746;2023-12-07T13:16:16;91465.44;;;4.69;57.95
46778;BME280;32536;47.128;8.746;2023-12-07T13:18:42;91466.59;;;4.75;58.04
46778;BME280;32536;47.128;8.746;2023-12-07T13:21:09;91459.81;;;4.81;58.15
46778;BME280;32536;47.128;8.746;2023-12-07T13:23:36;91468.16;;;4.84;58.11